Time;durP1;ratioP1;P1;durP2;ratioP2;P2;SDS_P1;SDS_P2;PMS_P1;PMS_P2;Temp;Humidity;BMP_temperature;BMP_pressure;BME280_temperature;BME280_humidity;BME280_pressure;Samples;Min_cycle;Max_cycle;Signal;HPM_P1;HPM_P2
2023/01/21 00:00:59;;;;;;;17.58;7.22;;;;;;;6.10;76.03;99298.88;3158770;28;20386;-73
2023/01/21 00:02:31;;;;;;;15.65;6.95;;;;;;;6.08;76.16;99295.50;3159178;28;20490;-73
2023/01/21 00:04:03;;;;;;;19.15;8.50;;;;;;;6.10;76.03;99298.88;3159133;28;20036;-72
2023/01/21 00:05:34;;;;;;;13.73;6.90;;;;;;;5.99;76.23;99290.63;3158692;28;20546;-72
2023/01/21 00:07:07;;;;;;;16.83;7.65;;;;;;;6.07;76.37;99303.31;3159046;28;20040;-72
2023/01/21 00:08:40;;;;;;;17.20;7.55;;;;;;;6.02;76.03;99297.44;3159025;28;20044;-71
2023/01/21 00:10:12;;;;;;;19.70;9.10;;;;;;;6.01;76.27;99304.38;3158698;28;20509;-72
2023/01/21 00:11:43;;;;;;;19.17;7.25;;;;;;;5.97;76.40;99297.59;3158310;28;20040;-71
2023/01/21 00:13:15;;;;;;;15.00;7.47;;;;;;;5.95;76.65;99299.41;3158935;28;20104;-72
2023/01/21 00:14:47;;;;;;;14.93;7.15;;;;;;;5.95;76.64;99302.00;3158736;28;20056;-72
2023/01/21 00:16:19;;;;;;;17.15;7.18;;;;;;;5.97;76.56;99312.25;3158885;28;20044;-72
2023/01/21 00:17:52;;;;;;;15.93;7.40;;;;;;;5.98;76.67;99313.97;3158231;28;20105;-73
2023/01/21 00:19:24;;;;;;;17.90;8.07;;;;;;;5.96;76.69;99310.59;3159043;28;20063;-73
2023/01/21 00:20:56;;;;;;;14.10;7.05;;;;;;;5.95;76.71;99314.09;3158948;28;20117;-72
2023/01/21 00:22:28;;;;;;;14.63;7.03;;;;;;;5.92;76.60;99315.00;3158753;28;20044;-72
2023/01/21 00:24:02;;;;;;;18.58;7.45;;;;;;;5.92;76.62;99317.56;3158545;28;20577;-72
2023/01/21 00:25:42;;;;;;;16.67;8.38;;;;;;;5.92;76.70;99322.75;3158843;28;20445;-72
2023/01/21 00:27:13;;;;;;;14.35;7.20;;;;;;;5.88;76.83;99321.97;3157913;28;20063;-73
2023/01/21 00:28:45;;;;;;;20.55;7.47;;;;;;;5.84;76.85;99330.75;3158745;28;20048;-72
2023/01/21 00:30:16;;;;;;;16.05;7.03;;;;;;;5.81;76.95;99327.41;3158672;28;20060;-72
2023/01/21 00:31:48;;;;;;;15.80;7.30;;;;;;;5.79;77.03;99322.28;3158656;28;20542;-73
2023/01/21 00:33:20;;;;;;;11.82;6.53;;;;;;;5.80;77.09;99318.00;3158566;28;20571;-73
2023/01/21 00:34:52;;;;;;;16.95;6.78;;;;;;;5.78;77.04;99315.44;3158851;28;20052;-74
2023/01/21 00:36:28;;;;;;;14.75;6.90;;;;;;;5.78;76.99;99323.19;3158211;28;20504;-73
2023/01/21 00:38:00;;;;;;;12.48;6.53;;;;;;;5.75;77.20;99322.47;3158787;28;20588;-74
2023/01/21 00:39:33;;;;;;;14.50;6.95;;;;;;;5.74;77.04;99325.91;3158606;28;20048;-74
2023/01/21 00:41:06;;;;;;;17.05;7.78;;;;;;;5.75;77.01;99318.13;3158407;28;20047;-72
2023/01/21 00:42:38;;;;;;;23.85;7.60;;;;;;;5.75;77.00;99322.47;3158316;28;20436;-71
2023/01/21 00:44:10;;;;;;;14.80;7.45;;;;;;;5.68;77.11;99330.41;3152256;28;20526;-71
2023/01/21 00:45:41;;;;;;;13.15;7.22;;;;;;;5.68;77.15;99327.81;3158034;28;20135;-73
2023/01/21 00:47:13;;;;;;;16.90;7.47;;;;;;;5.61;77.04;99312.56;3158528;28;20535;-71
2023/01/21 00:48:45;;;;;;;15.20;7.78;;;;;;;5.68;77.05;99327.81;3158237;28;20040;-72
2023/01/21 00:50:16;;;;;;;16.75;7.53;;;;;;;5.69;76.95;99323.50;3158487;28;20131;-72
2023/01/21 00:51:48;;;;;;;12.45;6.63;;;;;;;5.71;76.87;99334.63;3158388;28;20147;-72
2023/01/21 00:53:20;;;;;;;21.08;7.72;;;;;;;5.69;77.03;99332.09;3158114;28;20056;-72
2023/01/21 00:54:53;;;;;;;15.02;7.10;;;;;;;5.67;76.90;99331.28;3157867;28;20056;-71
2023/01/21 00:56:25;;;;;;;16.92;7.90;;;;;;;5.66;76.91;99329.59;3158575;28;20059;-72
2023/01/21 00:57:55;;;;;;;12.57;6.30;;;;;;;5.64;76.94;99318.47;3158023;28;20453;-72
2023/01/21 00:59:28;;;;;;;13.75;6.70;;;;;;;5.64;76.83;99326.22;3158139;28;20048;-72
2023/01/21 01:01:00;;;;;;;14.75;7.43;;;;;;;5.61;76.81;99316.00;3157811;28;20136;-72
2023/01/21 01:02:32;;;;;;;15.82;7.78;;;;;;;5.62;76.89;99311.66;3158226;28;20051;-72
2023/01/21 01:04:05;;;;;;;12.65;6.80;;;;;;;5.62;76.88;99309.94;3158122;28;20089;-71
2023/01/21 01:05:37;;;;;;;10.80;6.30;;;;;;;5.63;76.71;99316.78;3157890;28;20048;-72
2023/01/21 01:07:09;;;;;;;13.43;6.57;;;;;;;5.63;76.65;99314.22;3158332;28;20044;-71
2023/01/21 01:08:40;;;;;;;15.60;6.63;;;;;;;5.62;76.46;99309.94;3158205;28;20441;-72
2023/01/21 01:10:13;;;;;;;15.98;7.25;;;;;;;5.61;76.64;99305.66;3158143;28;20044;-71
2023/01/21 01:11:45;;;;;;;12.60;6.82;;;;;;;5.58;76.46;99310.09;3158101;28;20044;-72
2023/01/21 01:13:16;;;;;;;13.90;7.00;;;;;;;5.56;76.53;99315.31;3157951;28;20052;-72
2023/01/21 01:14:48;;;;;;;15.40;7.03;;;;;;;5.53;76.45;99307.66;3154036;28;20069;-73
2023/01/21 01:16:20;;;;;;;14.55;7.32;;;;;;;5.43;76.52;99301.09;3147341;28;20049;-73
2023/01/21 01:17:52;;;;;;;17.08;8.00;;;;;;;5.46;76.69;99306.16;3158631;28;20059;-74
2023/01/21 01:19:25;;;;;;;16.08;7.10;;;;;;;5.46;76.72;99306.16;3157676;28;20110;-72
2023/01/21 01:20:56;;;;;;;13.68;7.47;;;;;;;5.45;76.70;99304.47;3158036;28;20072;-73
2023/01/21 01:22:27;;;;;;;13.80;7.15;;;;;;;5.44;76.62;99302.78;3157824;28;20048;-72
2023/01/21 01:24:01;;;;;;;12.50;6.80;;;;;;;5.42;76.77;99309.75;3157662;28;20594;-72
2023/01/21 01:25:36;;;;;;;12.88;6.95;;;;;;;5.37;76.87;99306.47;3158089;28;20131;-73
2023/01/21 01:27:08;;;;;;;14.98;6.90;;;;;;;5.35;76.91;99306.50;3157699;28;20536;-72
2023/01/21 01:28:40;;;;;;;11.75;6.70;;;;;;;5.31;76.86;99296.34;3157957;28;20052;-72
2023/01/21 01:30:13;;;;;;;12.40;6.88;;;;;;;5.30;76.95;99292.06;3148177;28;20055;-72
2023/01/21 01:31:45;;;;;;;13.10;6.63;;;;;;;5.28;76.89;99291.25;3154581;28;20051;-73
2023/01/21 01:33:18;;;;;;;17.25;7.03;;;;;;;5.26;76.93;99288.72;3153648;28;20048;-72
2023/01/21 01:34:49;;;;;;;15.15;7.75;;;;;;;5.26;76.86;99299.03;3157730;28;20096;-72
2023/01/21 01:36:23;;;;;;;12.73;6.50;;;;;;;5.21;76.81;99290.63;3151266;28;20440;-72
2023/01/21 01:37:55;;;;;;;15.88;6.47;;;;;;;5.25;76.79;99305.94;3155305;28;20123;-73
2023/01/21 01:39:27;;;;;;;11.95;6.57;;;;;;;5.22;76.79;99295.72;3157398;28;20043;-73
2023/01/21 01:41:01;;;;;;;13.63;6.68;;;;;;;5.21;76.77;99299.19;3157719;28;20048;-74
2023/01/21 01:42:33;;;;;;;16.05;7.40;;;;;;;5.19;76.77;99295.81;3157776;28;20439;-74
2023/01/21 01:44:06;;;;;;;13.15;6.47;;;;;;;5.18;76.73;99285.56;3150775;28;20048;-73
2023/01/21 01:45:37;;;;;;;13.05;6.55;;;;;;;5.16;76.61;99283.00;3157990;28;20109;-74
2023/01/21 01:47:09;;;;;;;15.90;7.28;;;;;;;5.14;76.71;99287.38;3157674;28;20266;-73
2023/01/21 01:48:44;;;;;;;11.90;5.85;;;;;;;5.08;76.62;99284.13;3158152;28;20056;-74
2023/01/21 01:50:19;;;;;;;16.80;7.35;;;;;;;5.15;76.46;99295.97;3157637;28;20044;-74
2023/01/21 01:51:54;;;;;;;15.13;6.57;;;;;;;5.10;76.46;99283.19;3157581;28;20363;-74
2023/01/21 01:53:27;;;;;;;12.73;6.55;;;;;;;5.11;76.35;99278.88;3157269;28;20044;-74
2023/01/21 01:55:02;;;;;;;18.80;6.82;;;;;;;5.10;76.46;99278.03;3157229;28;20454;-74
2023/01/21 01:56:40;;;;;;;15.38;6.65;;;;;;;5.04;76.44;99278.22;3157830;28;20044;-74
2023/01/21 01:58:14;;;;;;;13.02;6.82;;;;;;;5.08;76.49;99287.56;3157417;28;20615;-74
2023/01/21 01:59:48;;;;;;;13.07;7.22;;;;;;;5.07;76.22;99288.47;3157684;28;20453;-73
2023/01/21 02:01:20;;;;;;;16.58;7.25;;;;;;;5.06;76.31;99297.09;3157712;28;20151;-73
2023/01/21 02:04:45;;;;;;;15.23;7.50;;;;;;;4.91;76.57;99287.22;3157617;28;20584;-72
2023/01/21 02:06:18;;;;;;;15.80;7.63;;;;;;;4.92;76.23;99296.66;3157511;28;20487;-73
2023/01/21 02:07:50;;;;;;;14.65;6.80;;;;;;;4.92;76.53;99300.09;3157555;28;20043;-73
2023/01/21 02:09:26;;;;;;;13.98;7.40;;;;;;;4.92;76.51;99304.41;3157538;28;20117;-72
2023/01/21 02:10:57;;;;;;;13.27;7.43;;;;;;;4.91;76.45;99293.25;3157500;28;20097;-72
2023/01/21 02:12:31;;;;;;;13.27;7.18;;;;;;;4.92;76.36;99289.78;3157563;28;20184;-71
2023/01/21 02:14:03;;;;;;;15.60;7.05;;;;;;;4.92;76.38;99283.78;3157605;28;20052;-72
2023/01/21 02:15:44;;;;;;;15.90;6.82;;;;;;;4.92;76.41;99281.19;3155505;28;20059;-73
2023/01/21 02:17:38;;;;;;;13.18;7.03;;;;;;;4.89;76.42;99289.03;3153578;28;20056;-74
2023/01/21 02:19:40;;;;;;;14.68;7.18;;;;;;;4.86;76.43;99294.28;3157360;28;20055;-74
2023/01/21 02:21:48;;;;;;;14.30;6.55;;;;;;;4.81;76.49;99294.41;3140251;28;20052;-74
2023/01/21 02:23:28;;;;;;;13.23;6.82;;;;;;;4.76;76.62;99294.56;3157193;28;20052;-74
2023/01/21 02:25:32;;;;;;;13.88;6.80;;;;;;;4.70;76.86;99302.47;3156923;28;20105;-74
2023/01/21 02:27:42;;;;;;;14.25;6.88;;;;;;;4.57;77.03;99294.22;3157263;28;20074;-73
2023/01/21 02:29:52;;;;;;;11.70;6.60;;;;;;;4.56;77.10;99302.88;3152422;28;20052;-73
2023/01/21 02:31:50;;;;;;;14.43;7.05;;;;;;;4.60;77.02;99308.78;3157121;28;20131;-73
2023/01/21 02:33:41;;;;;;;13.73;7.35;;;;;;;4.60;77.01;99303.63;3157326;28;20134;-73
2023/01/21 02:35:18;;;;;;;13.93;6.82;;;;;;;4.59;77.00;99296.78;3157261;28;20056;-73
2023/01/21 02:37:13;;;;;;;15.05;7.15;;;;;;;4.61;76.87;99294.97;3157318;28;20052;-73
2023/01/21 02:38:52;;;;;;;14.98;6.68;;;;;;;4.61;76.96;99294.13;3157546;28;20093;-73
2023/01/21 02:40:34;;;;;;;13.75;7.47;;;;;;;4.60;76.90;99293.31;3157409;28;20044;-73
2023/01/21 02:42:12;;;;;;;11.75;6.80;;;;;;;4.61;76.94;99302.72;3157184;28;20052;-73
2023/01/21 02:43:51;;;;;;;15.75;8.25;;;;;;;4.59;77.02;99299.34;3151324;28;20089;-73
2023/01/21 02:45:33;;;;;;;15.13;6.63;;;;;;;4.59;77.13;99306.25;3144961;28;20056;-74
2023/01/21 02:47:14;;;;;;;12.20;6.72;;;;;;;4.48;77.08;99281.59;3145033;28;20432;-74
2023/01/21 02:48:53;;;;;;;12.38;7.03;;;;;;;4.57;77.20;99294.22;3157269;28;20453;-73
2023/01/21 02:50:30;;;;;;;17.88;7.55;;;;;;;4.57;77.30;99286.50;3156975;28;20497;-72
2023/01/21 02:52:02;;;;;;;13.13;6.93;;;;;;;4.60;77.14;99287.31;3157195;28;20779;-73
2023/01/21 02:53:36;;;;;;;13.90;7.93;;;;;;;4.59;77.18;99278.72;3157395;28;20101;-73
2023/01/21 02:55:14;;;;;;;13.82;7.72;;;;;;;4.60;77.19;99275.25;3156896;28;20128;-73
2023/01/21 02:56:46;;;;;;;16.95;8.55;;;;;;;4.59;77.16;99268.41;3157170;28;20105;-73
2023/01/21 02:58:21;;;;;;;15.40;8.20;;;;;;;4.59;77.13;99263.25;3156995;28;20060;-73
2023/01/21 02:59:54;;;;;;;16.63;8.38;;;;;;;4.60;77.12;99267.50;3144586;28;20458;-73
2023/01/21 03:01:37;;;;;;;14.32;8.00;;;;;;;4.58;77.31;99282.19;3156699;28;20056;-72
2023/01/21 03:03:22;;;;;;;16.90;8.27;;;;;;;4.56;77.17;99284.81;3144400;28;20177;-73
2023/01/21 03:05:07;;;;;;;19.27;8.98;;;;;;;4.50;77.28;99266.94;3149060;28;20083;-74
2023/01/21 03:06:53;;;;;;;16.25;8.70;;;;;;;4.53;77.32;99261.69;3156583;28;20052;-74
2023/01/21 03:08:32;;;;;;;15.55;8.40;;;;;;;4.55;77.25;99261.63;3155434;28;20381;-75
2023/01/21 03:10:09;;;;;;;16.17;9.15;;;;;;;4.57;77.16;99267.59;3157181;28;20118;-73
2023/01/21 03:11:48;;;;;;;17.17;8.98;;;;;;;4.54;77.20;99272.84;3156776;28;20428;-73
2023/01/21 03:17:17;;;;;;;;;;;;;;;4.46;77.05;99283.38;3154404;28;20421;-74
2023/01/21 03:18:52;;;;;;;18.80;8.07;;;;;;;4.44;77.09;99292.06;3157286;28;20385;-73
2023/01/21 03:20:29;;;;;;;18.92;8.95;;;;;;;4.46;77.08;99290.25;3153302;28;20106;-72
2023/01/21 03:22:04;;;;;;;15.27;8.43;;;;;;;4.37;77.05;99262.16;3156916;28;20242;-72
2023/01/21 03:23:40;;;;;;;16.08;8.05;;;;;;;4.42;77.15;99274.03;3156623;28;20048;-74
2023/01/21 03:25:14;;;;;;;15.40;7.90;;;;;;;4.39;77.27;99284.44;3156452;28;20048;-72
2023/01/21 03:26:50;;;;;;;13.85;7.40;;;;;;;4.38;77.30;99281.91;3156910;28;20382;-72
2023/01/21 03:28:26;;;;;;;17.60;7.93;;;;;;;4.38;77.41;99276.75;3157081;28;20067;-72
2023/01/21 03:30:03;;;;;;;14.93;7.85;;;;;;;4.38;77.36;99267.31;3156797;28;20445;-72
2023/01/21 03:31:40;;;;;;;12.35;6.93;;;;;;;4.37;77.25;99275.91;3156522;28;20105;-71
2023/01/21 03:33:14;;;;;;;14.90;7.25;;;;;;;4.33;77.18;99285.47;3157069;28;20075;-73
2023/01/21 03:34:50;;;;;;;12.80;6.60;;;;;;;4.31;77.29;99276.06;3157012;28;20117;-72
2023/01/21 03:36:36;;;;;;;12.05;6.30;;;;;;;4.28;77.28;99269.28;3149983;28;20057;-73
2023/01/21 03:38:16;;;;;;;13.70;6.78;;;;;;;4.30;77.23;99264.09;3152370;28;20059;-73
2023/01/21 03:39:55;;;;;;;12.65;6.90;;;;;;;4.29;77.25;99250.34;3156875;28;20072;-73
2023/01/21 03:41:32;;;;;;;10.35;6.32;;;;;;;4.26;77.26;99253.03;3156946;28;20048;-72
2023/01/21 03:43:04;;;;;;;16.60;6.35;;;;;;;4.26;77.30;99253.03;3156347;28;20138;-72
2023/01/21 03:44:36;;;;;;;12.30;6.63;;;;;;;4.23;77.30;99247.97;3150824;28;20161;-72
2023/01/21 03:46:15;;;;;;;13.63;7.05;;;;;;;4.18;77.47;99257.53;3156812;28;20059;-72
2023/01/21 03:47:54;;;;;;;14.43;7.38;;;;;;;4.18;77.47;99259.28;3156789;28;20071;-72
2023/01/21 03:49:32;;;;;;;17.17;7.10;;;;;;;4.17;77.33;99262.72;3156622;28;20440;-73
2023/01/21 03:51:09;;;;;;;13.65;7.28;;;;;;;4.16;77.59;99277.34;3156726;28;20051;-72
2023/01/21 03:52:43;;;;;;;18.65;7.90;;;;;;;4.13;77.58;99285.16;3156902;28;20073;-71
2023/01/21 03:54:15;;;;;;;17.70;9.27;;;;;;;4.12;77.59;99280.06;3156977;28;20044;-73
2023/01/21 03:55:50;;;;;;;16.58;7.85;;;;;;;4.10;77.65;99280.09;3156804;28;20048;-74
2023/01/21 03:57:22;;;;;;;16.52;7.70;;;;;;;4.07;77.60;99283.59;3156489;28;20628;-72
2023/01/21 03:58:54;;;;;;;15.73;7.70;;;;;;;4.02;77.73;99294.91;3156224;28;20355;-72
2023/01/21 04:00:26;;;;;;;16.10;7.40;;;;;;;3.92;77.75;99293.47;3157046;28;20055;-72
2023/01/21 04:01:57;;;;;;;17.45;7.63;;;;;;;3.88;77.87;99303.00;3156493;28;20514;-73
2023/01/21 04:03:29;;;;;;;19.88;8.38;;;;;;;3.81;77.83;99307.47;3158332;28;20161;-71
2023/01/21 04:05:00;;;;;;;16.33;8.15;;;;;;;3.78;77.87;99301.53;3158879;28;20448;-72
2023/01/21 04:06:32;;;;;;;16.33;8.30;;;;;;;3.73;77.85;99306.81;3159423;28;20112;-74
2023/01/21 04:08:05;;;;;;;15.43;7.95;;;;;;;3.72;77.98;99306.84;3151532;28;20158;-73
2023/01/21 04:09:36;;;;;;;16.13;8.23;;;;;;;3.70;78.06;99313.75;3146348;28;20941;-71
2023/01/21 04:11:08;;;;;;;16.55;8.18;;;;;;;3.68;78.07;99316.38;3158246;28;20047;-73
2023/01/21 04:12:39;;;;;;;16.50;8.27;;;;;;;3.66;78.00;99307.84;3159339;28;20052;-73
2023/01/21 04:14:10;;;;;;;17.48;7.95;;;;;;;3.64;78.15;99310.47;3158830;28;20040;-73
2023/01/21 04:15:42;;;;;;;14.38;7.93;;;;;;;3.64;78.14;99296.75;3159022;28;20584;-73
2023/01/21 04:17:14;;;;;;;17.13;7.78;;;;;;;3.61;78.09;99296.84;3158659;28;20048;-71
2023/01/21 04:18:46;;;;;;;16.88;7.95;;;;;;;3.60;78.15;99297.69;3158922;28;20108;-72
2023/01/21 04:20:18;;;;;;;16.08;8.05;;;;;;;3.60;78.32;99306.28;3158828;28;20132;-72
2023/01/21 04:21:49;;;;;;;14.15;7.97;;;;;;;3.61;78.26;99317.44;3157922;28;20468;-72
2023/01/21 04:23:23;;;;;;;14.02;6.97;;;;;;;3.56;78.17;99301.25;3158865;28;20048;-71
2023/01/21 04:24:54;;;;;;;;;;;;;;;3.56;78.21;99299.50;3159197;28;20187;-72
2023/01/21 04:26:26;;;;;;;18.45;8.45;;;;;;;3.57;78.18;99308.06;3154136;28;19928;-71
2023/01/21 04:27:58;;;;;;;20.17;9.63;;;;;;;3.57;78.22;99308.91;3150208;28;20748;-74
2023/01/21 04:29:30;;;;;;;21.55;11.23;;;;;;;3.57;78.12;99323.53;3157958;28;20515;-71
2023/01/21 04:31:02;;;;;;;21.63;10.77;;;;;;;3.55;78.02;99323.56;3158574;28;20056;-73
2023/01/21 04:32:36;;;;;;;18.25;9.20;;;;;;;3.55;78.02;99331.31;3158769;28;20052;-72
2023/01/21 04:34:07;;;;;;;22.13;9.52;;;;;;;3.56;78.01;99340.72;3158641;28;20052;-72
2023/01/21 04:35:38;;;;;;;22.80;10.02;;;;;;;3.58;78.04;99335.50;3158015;28;20440;-72
2023/01/21 04:37:10;;;;;;;17.52;9.18;;;;;;;3.58;78.04;99331.22;3158720;28;20056;-72
2023/01/21 04:38:44;;;;;;;19.92;9.73;;;;;;;3.58;77.94;99322.63;3158694;28;20048;-72
2023/01/21 04:40:16;;;;;;;25.17;10.07;;;;;;;3.59;77.98;99326.91;3158721;28;20056;-72
2023/01/21 04:41:47;;;;;;;21.13;9.77;;;;;;;3.59;78.20;99322.63;3158514;28;20124;-72
2023/01/21 04:43:20;;;;;;;19.38;10.25;;;;;;;3.59;78.18;99319.19;3156122;28;20504;-72
2023/01/21 04:44:51;;;;;;;17.73;8.32;;;;;;;3.59;78.17;99314.03;3154975;28;20105;-73
2023/01/21 04:46:22;;;;;;;20.85;10.05;;;;;;;3.60;78.20;99316.56;3158742;28;20048;-73
2023/01/21 04:47:54;;;;;;;18.48;9.85;;;;;;;3.59;78.21;99317.47;3151010;28;20113;-72
2023/01/21 04:49:26;;;;;;;20.15;10.00;;;;;;;3.58;78.27;99326.06;3145805;28;20053;-73
2023/01/21 04:50:57;;;;;;;19.88;10.05;;;;;;;3.60;78.50;99333.75;3158308;28;20048;-73
2023/01/21 04:52:29;;;;;;;24.60;9.88;;;;;;;3.59;78.56;99325.19;3158547;28;20052;-73
2023/01/21 04:54:02;;;;;;;21.55;9.00;;;;;;;3.60;78.47;99323.44;3158151;28;20493;-73
2023/01/21 04:55:34;;;;;;;19.88;9.35;;;;;;;3.59;78.53;99311.47;3158505;28;20071;-73
2023/01/21 04:57:05;;;;;;;19.67;9.65;;;;;;;3.59;78.40;99324.34;3157931;28;20512;-72
2023/01/21 04:58:36;;;;;;;26.00;10.80;;;;;;;3.58;78.38;99317.47;3158630;28;20051;-73
2023/01/21 05:00:09;;;;;;;20.27;9.73;;;;;;;3.56;78.47;99317.53;3158154;28;20070;-71
2023/01/21 05:01:42;;;;;;;23.98;8.93;;;;;;;3.56;78.40;99314.97;3158247;28;20056;-72
2023/01/21 05:03:13;;;;;;;24.85;10.20;;;;;;;3.57;78.37;99308.91;3158051;28;20052;-72
2023/01/21 05:04:45;;;;;;;19.80;9.10;;;;;;;3.56;78.39;99307.25;3158410;28;20047;-72
2023/01/21 05:06:17;;;;;;;19.63;9.60;;;;;;;3.58;78.34;99314.91;3157956;28;20052;-72
2023/01/21 05:07:52;;;;;;;21.55;10.27;;;;;;;3.58;78.46;99318.34;3152628;28;20044;-72
2023/01/21 05:09:26;;;;;;;20.80;9.77;;;;;;;3.58;78.30;99325.22;3150632;28;20048;-72
2023/01/21 05:10:58;;;;;;;22.45;8.73;;;;;;;3.58;78.45;99331.22;3158408;28;20044;-71
2023/01/21 05:12:29;;;;;;;18.15;9.55;;;;;;;3.57;78.29;99339.81;3158501;28;20051;-72
2023/01/21 05:14:01;;;;;;;22.02;8.77;;;;;;;3.56;78.37;99334.72;3156802;28;20089;-72
2023/01/21 05:15:33;;;;;;;17.17;8.95;;;;;;;3.57;78.43;99338.97;3158265;28;20592;-72
2023/01/21 05:17:05;;;;;;;23.40;10.15;;;;;;;3.55;78.41;99343.31;3157247;28;20067;-72
2023/01/21 05:18:37;;;;;;;23.13;11.63;;;;;;;3.46;78.61;99331.53;3149237;28;20114;-72
2023/01/21 05:20:10;;;;;;;19.63;10.93;;;;;;;3.50;78.72;99355.47;3157831;28;20043;-72
2023/01/21 05:21:42;;;;;;;24.65;11.90;;;;;;;3.49;78.87;99358.91;3157995;28;20173;-73
2023/01/21 05:23:13;;;;;;;20.30;10.55;;;;;;;3.46;78.86;99361.53;3158252;28;20048;-73
2023/01/21 05:24:46;;;;;;;25.52;11.75;;;;;;;3.46;79.00;99365.00;3158215;28;20197;-73
2023/01/21 05:26:18;;;;;;;17.30;9.18;;;;;;;3.46;78.99;99361.53;3157742;28;20109;-73
2023/01/21 05:27:52;;;;;;;26.20;11.10;;;;;;;3.44;79.04;99361.59;3158150;28;20092;-73
2023/01/21 05:29:24;;;;;;;24.48;10.10;;;;;;;3.44;79.09;99347.88;3157711;28;20047;-73
2023/01/21 05:31:00;;;;;;;21.55;10.55;;;;;;;3.43;79.01;99347.00;3157804;28;20109;-73
2023/01/21 05:32:32;;;;;;;18.17;10.30;;;;;;;3.45;78.99;99359.88;3153994;28;20513;-73
2023/01/21 05:34:04;;;;;;;22.90;10.18;;;;;;;3.40;79.00;99341.94;3157726;28;20040;-73
2023/01/21 05:35:35;;;;;;;20.20;10.10;;;;;;;3.46;78.80;99346.09;3157275;28;20131;-72
2023/01/21 05:37:06;;;;;;;21.08;10.75;;;;;;;3.47;78.79;99352.97;3151568;28;20523;-73
2023/01/21 05:38:38;;;;;;;19.38;10.63;;;;;;;3.48;78.73;99349.50;3158016;28;20044;-76
2023/01/21 05:40:14;;;;;;;26.85;10.77;;;;;;;3.46;78.64;99357.28;3158159;28;20048;-73
2023/01/21 05:41:45;;;;;;;19.05;10.60;;;;;;;3.45;78.90;99365.00;3157900;28;20056;-71
2023/01/21 05:43:17;;;;;;;18.02;9.93;;;;;;;3.45;78.67;99355.56;3154684;28;20060;-72
2023/01/21 05:44:49;;;;;;;20.40;10.43;;;;;;;3.45;78.82;99349.56;3153674;28;20055;-72
2023/01/21 05:46:21;;;;;;;21.75;10.63;;;;;;;3.46;78.66;99353.81;3157328;28;20112;-72
2023/01/21 05:47:52;;;;;;;23.80;11.35;;;;;;;3.45;78.67;99358.13;3157468;28;20048;-72
2023/01/21 05:49:23;;;;;;;25.05;10.88;;;;;;;3.46;78.85;99361.53;3157747;28;20058;-73
2023/01/21 05:50:56;;;;;;;27.95;11.13;;;;;;;3.40;78.83;99354.81;3157575;28;20476;-69
2023/01/21 05:52:27;;;;;;;21.42;11.27;;;;;;;3.45;78.87;99371.00;3157649;28;20124;-69
2023/01/21 05:53:59;;;;;;;24.05;10.95;;;;;;;3.42;78.81;99378.78;3157243;28;20488;-73
2023/01/21 05:55:32;;;;;;;20.58;10.70;;;;;;;3.43;79.00;99370.19;3157474;28;20048;-73
2023/01/21 05:57:04;;;;;;;22.52;10.70;;;;;;;3.43;79.04;99383.06;3156660;28;20716;-73
2023/01/21 05:58:36;;;;;;;24.52;11.32;;;;;;;3.42;79.06;99379.63;3157627;28;20047;-70
2023/01/21 06:00:10;;;;;;;23.08;11.75;;;;;;;3.42;79.14;99384.78;3157656;28;20054;-70
2023/01/21 06:01:40;;;;;;;;;;;;;;;3.39;79.02;99376.28;3157894;28;20056;-71
2023/01/21 06:03:12;;;;;;;20.55;11.18;;;;;;;3.33;79.18;99368.72;3157695;28;20319;-70
2023/01/21 06:04:44;;;;;;;28.58;13.45;;;;;;;3.30;79.37;99373.94;3157786;28;20496;-68
2023/01/21 06:06:16;;;;;;;29.55;13.18;;;;;;;3.29;79.41;99377.41;3157267;28;20052;-72
2023/01/21 06:07:48;;;;;;;29.58;14.00;;;;;;;3.28;79.37;99375.69;3152417;28;20049;-70
2023/01/21 06:09:20;;;;;;;18.75;9.68;;;;;;;3.24;79.36;99372.34;3153612;28;20109;-69
2023/01/21 06:10:55;;;;;;;21.25;11.07;;;;;;;3.21;79.63;99374.97;3157570;28;20547;-69
2023/01/21 06:12:26;;;;;;;23.45;11.35;;;;;;;3.15;79.71;99375.13;3157314;28;20055;-73
2023/01/21 06:13:58;;;;;;;74.32;33.30;;;;;;;3.10;79.90;99379.50;3156523;28;20610;-71
2023/01/21 06:15:32;;;;;;;58.15;25.25;;;;;;;3.11;79.99;99370.94;3156741;28;20048;-75
2023/01/21 06:17:04;;;;;;;114.93;52.53;;;;;;;3.14;80.10;99378.56;3146679;28;20473;-71
2023/01/21 06:18:36;;;;;;;81.22;39.40;;;;;;;3.17;79.91;99381.94;3156374;28;20130;-71
2023/01/21 06:20:09;;;;;;;51.35;24.35;;;;;;;3.20;79.82;99365.56;3156677;28;20048;-76
2023/01/21 06:21:41;;;;;;;31.05;15.50;;;;;;;3.16;79.80;99380.22;3157124;28;20512;-74
2023/01/21 06:23:13;;;;;;;26.90;13.35;;;;;;;3.14;79.77;99378.56;3156809;28;20543;-69
2023/01/21 06:24:45;;;;;;;35.45;14.82;;;;;;;3.17;79.81;99363.06;3157094;28;20040;-67
2023/01/21 06:26:18;;;;;;;36.40;16.27;;;;;;;3.18;79.68;99351.88;3157335;28;20051;-70
2023/01/21 06:27:50;;;;;;;95.43;39.58;;;;;;;3.19;79.82;99354.44;3157345;28;20052;-71
2023/01/21 06:29:22;;;;;;;64.28;28.10;;;;;;;3.18;79.83;99352.72;3157407;28;20047;-73
2023/01/21 06:30:54;;;;;;;91.25;43.95;;;;;;;3.18;79.94;99351.88;3156975;28;20078;-72
2023/01/21 06:32:26;;;;;;;87.68;40.20;;;;;;;3.20;79.81;99360.44;3157736;28;20059;-73
2023/01/21 06:33:57;;;;;;;130.50;59.95;;;;;;;3.25;80.17;99375.75;3157165;28;20125;-70
2023/01/21 06:35:30;;;;;;;35.55;20.15;;;;;;;3.28;80.08;99385.97;3156890;28;20052;-72
2023/01/21 06:37:01;;;;;;;28.48;14.85;;;;;;;3.27;79.98;99379.97;3156135;28;20056;-72
2023/01/21 06:38:35;;;;;;;29.98;14.65;;;;;;;3.28;80.10;99379.09;3157575;28;20081;-72
2023/01/21 06:40:07;;;;;;;24.92;13.65;;;;;;;3.30;79.93;99385.06;3157165;28;20043;-70
2023/01/21 06:41:41;;;;;;;26.50;13.40;;;;;;;3.30;79.83;99400.50;3157184;28;20047;-70
2023/01/21 06:43:13;;;;;;;25.45;12.02;;;;;;;3.31;80.05;99399.66;3155420;28;20048;-72
2023/01/21 06:44:44;;;;;;;29.05;13.30;;;;;;;3.32;80.07;99403.06;3152995;28;20437;-69
2023/01/21 06:46:16;;;;;;;28.00;11.75;;;;;;;3.33;80.08;99410.72;3156711;28;20083;-65
2023/01/21 06:47:48;;;;;;;25.00;12.27;;;;;;;3.35;80.11;99428.72;3155396;28;20040;-69
2023/01/21 06:49:21;;;;;;;25.13;10.63;;;;;;;3.36;80.22;99417.53;3142922;28;20083;-72
2023/01/21 06:50:52;;;;;;;25.13;11.35;;;;;;;3.34;80.16;99415.03;3140205;28;20052;-71
2023/01/21 06:52:24;;;;;;;24.27;11.95;;;;;;;3.34;80.18;99409.88;3140676;28;20448;-72
2023/01/21 06:53:56;;;;;;;25.70;11.48;;;;;;;3.34;80.24;99409.88;3151255;28;20695;-69
2023/01/21 06:55:29;;;;;;;22.77;12.00;;;;;;;3.33;80.22;99413.31;3150761;28;20052;-68
2023/01/21 06:57:02;;;;;;;21.17;10.88;;;;;;;3.34;80.50;99437.31;3138906;28;20771;-72
2023/01/21 06:58:34;;;;;;;23.17;11.20;;;;;;;3.28;80.60;99438.28;3151150;28;20059;-71
2023/01/21 07:00:08;;;;;;;23.35;10.88;;;;;;;3.28;80.55;99429.72;3151512;28;20109;-68
2023/01/21 07:01:40;;;;;;;32.65;11.45;;;;;;;3.29;80.71;99437.44;3151588;28;20060;-70
2023/01/21 07:03:12;;;;;;;30.38;13.13;;;;;;;3.33;80.52;99441.63;3152025;28;20048;-73
2023/01/21 07:04:45;;;;;;;25.45;11.70;;;;;;;3.37;80.58;99425.25;3151388;28;20051;-73
2023/01/21 07:06:17;;;;;;;30.85;13.15;;;;;;;3.40;80.49;99424.31;3152047;28;20063;-71
2023/01/21 07:07:49;;;;;;;29.48;13.95;;;;;;;3.41;80.53;99432.00;3146680;28;20052;-69
2023/01/21 07:09:21;;;;;;;30.70;14.15;;;;;;;3.35;80.55;99437.28;3144429;28;20064;-72
2023/01/21 07:10:53;;;;;;;30.25;15.30;;;;;;;3.29;80.40;99434.84;3144373;28;20051;-74
2023/01/21 07:12:26;;;;;;;34.00;14.95;;;;;;;3.29;80.39;99442.56;3151575;28;20052;-71
2023/01/21 07:13:58;;;;;;;;;;;;;;;3.23;80.24;99453.00;3146750;28;20080;-72
2023/01/21 07:15:30;;;;;;;26.85;13.05;;;;;;;3.15;80.29;99455.72;3145954;28;19923;-74
2023/01/21 07:17:02;;;;;;;30.63;15.15;;;;;;;3.13;80.30;99448.91;3151663;28;20048;-74
2023/01/21 07:18:34;;;;;;;34.28;14.43;;;;;;;3.10;80.25;99431.81;3151542;28;20048;-72
2023/01/21 07:20:07;;;;;;;28.60;14.07;;;;;;;3.19;80.36;99436.78;3151819;28;20251;-77
2023/01/21 07:21:40;;;;;;;30.67;14.48;;;;;;;3.19;80.21;99423.91;3151761;28;20079;-74
2023/01/21 07:23:12;;;;;;;27.80;13.73;;;;;;;3.22;80.25;99417.81;3152027;28;20254;-73
2023/01/21 07:24:44;;;;;;;35.60;16.00;;;;;;;3.30;80.14;99420.25;3139585;28;20051;-77
2023/01/21 07:26:16;;;;;;;33.42;14.68;;;;;;;3.36;79.96;99428.69;3144989;28;20076;-74
2023/01/21 07:27:50;;;;;;;31.95;14.90;;;;;;;3.42;79.92;99433.69;3143453;28;20465;-73